Ash Flat, Arkansas
Current Conditions -  °F | °C
As of 11:55 AM on Wednesday 28 Jan 2015 (Local Time) from KBVX Reporting Station
Clear Clear  
Wind Chill: 54°   Ceiling: Unl
Heat Index: 54°   Visibility: 10mi
Dew Point: 34°   Wind: 8mph
Humidity: 47%   Direction: 150°SSE
Pressure: 30.22"   Gusts: NA
Location:  36.22°N, 91.61°W
Report Text: KBVX 281755Z AUTO 15007KT 10SM CLR 12/01 A3022 RMK AO1 10120 20000 57017
Loading
Personal Weather Stations






























Interactive Weather Map New forecast layout! Learn more

10-Day Weather Forecast

Advertisements
Track Severe Weather on mobile